createdAt,value
2018-02-22T00:02:01.768Z,32.13
2018-02-22T00:04:30.041Z,35.33
2018-02-22T00:06:58.326Z,33.87
2018-02-22T00:09:26.631Z,30.60
2018-02-22T00:11:55.689Z,33.63
2018-02-22T00:14:24.003Z,35.27
2018-02-22T00:16:53.057Z,33.60
2018-02-22T00:19:21.368Z,34.40
2018-02-22T00:21:49.660Z,31.67
2018-02-22T00:24:18.709Z,32.93
2018-02-22T00:26:47.045Z,33.47
2018-02-22T00:29:15.321Z,33.83
2018-02-22T00:31:43.611Z,31.67
2018-02-22T00:34:11.904Z,30.33
2018-02-22T00:36:40.191Z,32.83
2018-02-22T00:39:08.518Z,32.17
2018-02-22T00:41:36.810Z,34.27
2018-02-22T00:44:05.124Z,30.80
2018-02-22T00:46:33.409Z,34.33
2018-02-22T00:49:01.749Z,31.73
2018-02-22T00:51:30.082Z,31.07
2018-02-22T00:53:59.135Z,32.13
2018-02-22T00:56:27.421Z,32.47
2018-02-22T00:58:55.704Z,32.27
2018-02-22T01:01:23.987Z,30.43
2018-02-22T01:03:52.310Z,32.00
2018-02-22T01:06:20.600Z,32.23
2018-02-22T01:08:48.869Z,31.57
2018-02-22T01:11:17.164Z,31.10
2018-02-22T01:13:45.441Z,30.80
2018-02-22T01:16:13.748Z,32.73
2018-02-22T01:18:42.040Z,32.40
2018-02-22T01:21:11.100Z,32.80
2018-02-22T01:23:39.380Z,32.80
2018-02-22T01:26:07.682Z,31.70
2018-02-22T01:28:36.003Z,30.97
2018-02-22T01:31:04.272Z,31.57
2018-02-22T01:33:32.581Z,31.37
2018-02-22T01:36:00.860Z,31.23
2018-02-22T01:38:29.161Z,28.60
2018-02-22T01:40:57.581Z,28.20
2018-02-22T01:43:25.891Z,27.40
2018-02-22T01:45:54.180Z,29.03
2018-02-22T01:48:22.461Z,28.20
2018-02-22T01:50:50.747Z,27.93
2018-02-22T01:53:19.089Z,28.83
2018-02-22T01:55:47.368Z,28.57
2018-02-22T01:58:15.680Z,29.33
2018-02-22T02:00:43.996Z,29.03
2018-02-22T02:03:12.264Z,30.70
2018-02-22T02:05:40.580Z,27.97
2018-02-22T02:08:08.880Z,29.23
2018-02-22T02:10:37.160Z,29.10
2018-02-22T02:13:05.444Z,28.37
2018-02-22T02:15:34.500Z,29.07
2018-02-22T02:18:02.829Z,26.70
2018-02-22T02:20:31.265Z,29.10
2018-02-22T02:22:59.582Z,25.87
2018-02-22T02:25:27.900Z,28.27
2018-02-22T02:28:01.868Z,26.03
2018-02-22T02:30:30.182Z,23.63
2018-02-22T02:32:58.570Z,27.60
2018-02-22T02:35:26.920Z,27.93
2018-02-22T02:37:55.248Z,27.37
2018-02-22T02:40:23.576Z,26.77
2018-02-22T02:42:51.914Z,23.00
2018-02-22T02:45:21.077Z,25.33
2018-02-22T02:47:49.462Z,28.40
2018-02-22T02:50:17.799Z,28.87
2018-02-22T02:52:46.158Z,25.20
2018-02-22T02:55:15.279Z,26.77
2018-02-22T02:57:43.684Z,30.10
2018-02-22T03:00:12.012Z,26.37
2018-02-22T03:02:41.175Z,24.07
2018-02-22T03:05:09.502Z,26.17
2018-02-22T03:07:37.846Z,27.33
2018-02-22T03:10:07.001Z,30.07
2018-02-22T03:12:35.349Z,28.03
2018-02-22T03:15:03.694Z,25.23
2018-02-22T03:17:32.044Z,29.20
2018-02-22T03:20:00.382Z,25.87
2018-02-22T03:22:28.782Z,25.90
2018-02-22T03:24:57.110Z,28.27
2018-02-22T03:27:26.214Z,26.37
2018-02-22T03:29:55.325Z,29.93
2018-02-22T03:32:23.657Z,28.37
2018-02-22T03:34:52.034Z,28.37
2018-02-22T03:37:20.362Z,27.10
2018-02-22T03:39:48.730Z,27.00
2018-02-22T03:42:17.057Z,27.77
2018-02-22T03:44:45.386Z,28.40
2018-02-22T03:47:13.786Z,27.70
2018-02-22T03:49:42.130Z,26.37
2018-02-22T03:52:11.222Z,25.93
2018-02-22T03:54:40.327Z,26.90
2018-02-22T03:57:09.442Z,29.30
2018-02-22T03:59:39.390Z,28.20
2018-02-22T04:02:07.803Z,26.40
2018-02-22T04:04:36.897Z,27.00
2018-02-22T04:07:06.005Z,30.00
2018-02-22T04:09:35.127Z,26.27
2018-02-22T04:12:03.590Z,30.77
2018-02-22T04:14:32.002Z,29.43
2018-02-22T04:17:00.358Z,28.50
2018-02-22T04:19:28.875Z,23.90
2018-02-22T04:21:57.268Z,27.60
2018-02-22T04:24:25.693Z,30.47
2018-02-22T04:26:54.061Z,25.67
2018-02-22T04:29:23.211Z,30.50
2018-02-22T04:31:51.588Z,26.03
2018-02-22T04:34:19.974Z,27.93
2018-02-22T04:36:49.210Z,28.57
2018-02-22T04:39:17.610Z,28.07
2018-02-22T04:41:45.961Z,29.10
2018-02-22T04:44:16.101Z,24.27
2018-02-22T04:46:44.473Z,22.53
2018-02-22T04:49:12.882Z,29.30
2018-02-22T04:51:41.251Z,26.07
2018-02-22T04:54:09.640Z,28.63
2018-02-22T04:56:38.009Z,28.33
2018-02-22T04:59:06.378Z,26.40
2018-02-22T05:01:34.810Z,25.67
2018-02-22T05:04:03.190Z,25.33
2018-02-22T05:06:31.575Z,26.93
2018-02-22T05:08:59.952Z,27.13
2018-02-22T05:11:28.341Z,28.23
2018-02-22T05:13:57.530Z,26.87
2018-02-22T05:16:26.677Z,28.13
2018-02-22T05:18:55.050Z,30.20
2018-02-22T05:21:23.406Z,25.67
2018-02-22T05:23:51.770Z,29.77
2018-02-22T05:26:20.930Z,29.13
2018-02-22T05:28:49.318Z,28.10
2018-02-22T05:31:17.721Z,29.67
2018-02-22T05:33:46.847Z,27.97
2018-02-22T05:36:15.238Z,29.70
2018-02-22T05:38:43.649Z,30.60
2018-02-22T05:41:12.081Z,26.20
2018-02-22T05:43:40.443Z,29.93
2018-02-22T05:46:08.807Z,30.73
2018-02-22T05:48:37.951Z,25.87
2018-02-22T05:51:06.382Z,26.33
2018-02-22T05:53:35.520Z,30.77
2018-02-22T05:56:03.913Z,29.63
2018-02-22T05:58:32.336Z,29.43
2018-02-22T06:01:01.471Z,27.70
2018-02-22T06:03:29.938Z,30.60
2018-02-22T06:05:58.283Z,23.97
2018-02-22T06:08:26.693Z,28.63
2018-02-22T06:10:55.068Z,26.00
2018-02-22T06:13:23.472Z,27.10
2018-02-22T06:15:51.987Z,29.70
2018-02-22T06:18:20.335Z,27.87
2018-02-22T06:20:49.849Z,26.87
2018-02-22T06:23:18.338Z,29.03
2018-02-22T06:25:46.903Z,25.60
2018-02-22T06:28:15.473Z,26.93
2018-02-22T06:30:43.988Z,28.03
2018-02-22T06:33:12.502Z,21.73
2018-02-22T06:35:41.807Z,28.85
2018-02-22T06:38:11.021Z,26.63
2018-02-22T06:40:39.571Z,28.00
2018-02-22T06:43:08.196Z,26.63
2018-02-22T06:45:36.761Z,28.03
2018-02-22T06:48:05.502Z,24.70
2018-02-22T06:50:34.066Z,26.13
2018-02-22T06:53:04.792Z,22.13
2018-02-22T06:55:33.271Z,26.03
2018-02-22T06:58:01.856Z,25.00
2018-02-22T07:00:30.336Z,24.03
2018-02-22T07:02:58.878Z,25.03
2018-02-22T07:05:28.241Z,17.27
2018-02-22T07:07:56.593Z,24.50
2018-02-22T07:10:26.646Z,16.93
2018-02-22T07:12:56.705Z,24.40
2018-02-22T07:15:25.113Z,21.23
2018-02-22T07:17:53.518Z,18.83
2018-02-22T07:20:22.010Z,19.40
2018-02-22T07:22:50.351Z,19.23
2018-02-22T07:25:18.730Z,18.73
2018-02-22T07:27:47.252Z,18.70
2018-02-22T07:30:15.733Z,17.87
2018-02-22T07:32:44.211Z,16.87
2018-02-22T07:35:12.590Z,20.40
2018-02-22T07:37:40.970Z,18.63
2018-02-22T07:40:09.419Z,21.92
2018-02-22T07:42:37.831Z,21.60
2018-02-22T07:45:06.231Z,21.57
2018-02-22T07:47:35.382Z,22.30
2018-02-22T07:50:04.539Z,22.40
2018-02-22T07:52:32.964Z,19.43
2018-02-22T07:55:01.411Z,18.70
2018-02-22T07:57:29.764Z,22.23
2018-02-22T07:59:58.909Z,21.37
2018-02-22T08:02:27.353Z,20.80
2018-02-22T08:04:55.780Z,22.87
2018-02-22T08:07:24.267Z,19.40
2018-02-22T08:09:53.125Z,17.73
2018-02-22T08:12:21.696Z,20.40
2018-02-22T08:14:50.136Z,18.95
2018-02-22T08:17:19.283Z,15.17
2018-02-22T08:19:47.746Z,17.10
2018-02-22T08:22:16.155Z,20.40
2018-02-22T08:24:45.143Z,18.93
2018-02-22T08:27:13.535Z,16.55
2018-02-22T08:29:41.934Z,21.57
2018-02-22T08:32:10.385Z,20.30
2018-02-22T08:34:38.773Z,17.48
2018-02-22T08:37:07.153Z,19.50
2018-02-22T08:39:35.505Z,18.03
2018-02-22T08:42:03.893Z,17.73
2018-02-22T08:44:32.357Z,18.27
2018-02-22T08:47:00.763Z,19.80
2018-02-22T08:49:29.136Z,21.27
2018-02-22T08:51:57.575Z,17.90
2018-02-22T08:54:26.025Z,16.23
2018-02-22T08:56:55.233Z,20.40
2018-02-22T08:59:24.371Z,19.47
2018-02-22T09:01:52.824Z,19.77
2018-02-22T09:04:21.275Z,16.53
2018-02-22T09:06:49.664Z,21.53
2018-02-22T09:09:18.853Z,18.67
2018-02-22T09:11:47.239Z,17.10
2018-02-22T09:14:16.390Z,20.87
2018-02-22T09:16:44.765Z,17.93
2018-02-22T09:19:13.138Z,19.43
2018-02-22T09:21:41.610Z,19.63
2018-02-22T09:24:09.978Z,17.33
2018-02-22T09:26:38.363Z,20.23
2018-02-22T09:29:06.781Z,21.87
2018-02-22T09:31:35.170Z,18.83
2018-02-22T09:34:03.642Z,19.90
2018-02-22T09:36:32.082Z,20.00
2018-02-22T09:39:00.497Z,20.07
2018-02-22T09:41:28.903Z,16.47
2018-02-22T09:43:58.090Z,19.27
2018-02-22T09:46:26.639Z,22.47
2018-02-22T09:48:55.769Z,21.20
2018-02-22T09:51:24.138Z,19.67
2018-02-22T09:53:52.551Z,19.47
2018-02-22T09:56:21.709Z,22.40
2018-02-22T09:58:50.148Z,19.50
2018-02-22T10:01:18.566Z,20.63
2018-02-22T10:03:47.048Z,17.53
2018-02-22T10:06:15.482Z,22.33
2018-02-22T10:08:43.916Z,18.77
2018-02-22T10:11:12.361Z,21.80
2018-02-22T10:13:40.730Z,18.63
2018-02-22T10:16:09.203Z,18.10
2018-02-22T10:18:37.584Z,22.20
2018-02-22T10:21:05.994Z,19.90
2018-02-22T10:23:34.384Z,18.90
2018-02-22T10:26:02.812Z,21.57
2018-02-22T10:28:31.358Z,21.83
2018-02-22T10:30:59.818Z,16.63
2018-02-22T10:33:28.284Z,18.57
2018-02-22T10:35:56.673Z,20.17
2018-02-22T10:38:25.090Z,19.57
2018-02-22T10:40:54.311Z,19.40
2018-02-22T10:43:22.693Z,19.90
2018-02-22T10:45:51.115Z,19.90
2018-02-22T10:48:19.494Z,21.13
2018-02-22T10:50:47.910Z,16.23
2018-02-22T10:53:17.161Z,16.07
2018-02-22T10:55:45.543Z,16.67
2018-02-22T10:58:13.924Z,17.43
2018-02-22T11:03:45.913Z,19.30
2018-02-22T11:06:14.304Z,20.97
2018-02-22T11:08:43.694Z,17.80
2018-02-22T11:11:12.150Z,12.57
2018-02-22T11:13:40.514Z,19.33
2018-02-22T11:16:08.916Z,18.57
2018-02-22T11:18:37.333Z,18.23
2018-02-22T11:21:06.517Z,20.20
2018-02-22T11:23:34.943Z,19.60
2018-02-22T11:26:03.327Z,16.60
2018-02-22T11:28:31.705Z,18.70
2018-02-22T11:31:00.076Z,16.30
2018-02-22T11:33:28.511Z,18.83
2018-02-22T11:35:56.982Z,20.47
2018-02-22T11:38:25.376Z,17.00
2018-02-22T11:40:53.871Z,14.77
2018-02-22T11:43:23.084Z,13.50
2018-02-22T11:45:51.516Z,18.03
2018-02-22T11:48:19.919Z,16.40
2018-02-22T11:50:48.365Z,20.27
2018-02-22T11:53:16.760Z,20.03
2018-02-22T11:55:45.231Z,19.50
2018-02-22T11:58:13.662Z,16.17
2018-02-22T12:00:42.822Z,20.23
2018-02-22T12:03:11.812Z,15.43
2018-02-22T12:05:40.272Z,18.13
2018-02-22T12:08:08.711Z,21.07
2018-02-22T12:10:37.123Z,17.90
2018-02-22T12:13:05.953Z,15.07
2018-02-22T12:15:35.061Z,18.67
2018-02-22T12:18:04.233Z,19.53
2018-02-22T12:20:32.826Z,16.50
2018-02-22T12:23:01.390Z,19.87
2018-02-22T12:25:30.921Z,16.70
2018-02-22T12:28:00.379Z,18.73
2018-02-22T12:30:28.948Z,18.53
2018-02-22T12:32:57.728Z,18.57
2018-02-22T12:35:26.792Z,19.00
2018-02-22T12:37:55.433Z,15.23
2018-02-22T12:40:23.873Z,17.63
2018-02-22T12:42:53.788Z,19.13
2018-02-22T12:45:22.226Z,17.70
2018-02-22T12:47:50.647Z,19.77
2018-02-22T12:50:19.831Z,17.80
2018-02-22T12:52:49.195Z,17.13
2018-02-22T12:55:19.800Z,15.67
2018-02-22T12:57:48.982Z,18.30
2018-02-22T13:00:17.396Z,18.67
2018-02-22T13:02:48.060Z,18.60
2018-02-22T13:05:17.289Z,19.17
2018-02-22T13:07:45.746Z,17.30
2018-02-22T13:10:14.501Z,18.73
2018-02-22T13:12:42.917Z,19.10
2018-02-22T13:15:11.309Z,18.00
2018-02-22T13:17:39.846Z,19.57
2018-02-22T13:20:08.341Z,19.63
2018-02-22T13:22:37.515Z,20.13
2018-02-22T13:25:05.876Z,20.23
2018-02-22T13:27:34.254Z,19.77
2018-02-22T13:30:02.645Z,18.30
2018-02-22T13:32:48.702Z,19.03
2018-02-22T13:35:17.080Z,21.20
2018-02-22T13:38:15.790Z,19.77
2018-02-22T13:40:44.259Z,18.57
2018-02-22T13:43:12.695Z,19.27
2018-02-22T13:45:41.095Z,19.97
2018-02-22T13:48:09.462Z,18.50
2018-02-22T13:50:56.191Z,17.10
2018-02-22T13:53:24.597Z,17.50
2018-02-22T13:55:53.076Z,19.80
2018-02-22T13:58:21.463Z,16.60
2018-02-22T14:01:07.528Z,18.10
2018-02-22T14:03:35.873Z,17.57
2018-02-22T14:06:05.042Z,16.10
2018-02-22T14:08:43.410Z,17.53
2018-02-22T14:11:11.814Z,18.20
2018-02-22T14:13:40.246Z,18.90
2018-02-22T14:16:08.633Z,18.97
2018-02-22T14:18:37.853Z,16.87
2018-02-22T14:21:06.358Z,17.87
2018-02-22T14:23:36.525Z,17.07
2018-02-22T14:26:05.007Z,18.43
2018-02-22T14:28:35.050Z,15.27
2018-02-22T14:31:04.356Z,17.37
2018-02-22T14:33:32.709Z,17.80
2018-02-22T14:36:01.989Z,16.00
2018-02-22T14:38:31.141Z,17.30
2018-02-22T14:41:00.342Z,19.03
2018-02-22T14:43:28.727Z,17.37
2018-02-22T14:45:57.143Z,18.47
2018-02-22T14:48:25.573Z,20.13
2018-02-22T14:50:54.006Z,19.10
2018-02-22T14:53:23.168Z,19.93
2018-02-22T14:55:51.528Z,19.63
2018-02-22T14:58:19.889Z,21.90
2018-02-22T15:00:53.886Z,19.87
2018-02-22T15:03:22.319Z,20.20
2018-02-22T15:05:50.696Z,21.37
2018-02-22T15:08:19.132Z,20.80
2018-02-22T15:10:47.597Z,20.17
2018-02-22T15:13:15.980Z,19.00
2018-02-22T15:15:44.505Z,20.97
2018-02-22T15:18:12.870Z,18.80
2018-02-22T15:20:41.294Z,19.87
2018-02-22T15:23:10.502Z,19.43
2018-02-22T15:25:39.708Z,20.00
2018-02-22T15:28:08.936Z,19.97
2018-02-22T15:30:37.341Z,19.50
2018-02-22T15:33:05.715Z,20.87
2018-02-22T15:35:34.089Z,21.40
2018-02-22T15:38:02.489Z,21.30
2018-02-22T15:40:30.914Z,22.40
2018-02-22T15:42:59.310Z,17.73
2018-02-22T15:45:27.687Z,17.73
2018-02-22T15:47:59.184Z,19.03
2018-02-22T15:50:27.788Z,17.77
2018-02-22T15:52:56.254Z,20.80
2018-02-22T15:55:25.735Z,20.70
2018-02-22T15:57:54.992Z,22.47
2018-02-22T16:00:23.426Z,20.77
2018-02-22T16:02:51.855Z,21.93
2018-02-22T16:05:20.282Z,27.03
2018-02-22T16:07:48.635Z,24.97
2018-02-22T16:10:17.096Z,21.37
2018-02-22T16:12:45.512Z,23.83
2018-02-22T16:15:13.933Z,22.70
2018-02-22T16:17:42.383Z,26.40
2018-02-22T16:20:10.762Z,26.37
2018-02-22T16:22:39.225Z,18.97
2018-02-22T16:25:07.589Z,23.53
2018-02-22T16:27:36.060Z,17.97
2018-02-22T16:30:04.497Z,20.27
2018-02-22T16:32:33.645Z,24.83
2018-02-22T16:35:02.126Z,19.83
2018-02-22T16:37:41.445Z,19.37
2018-02-22T16:40:10.531Z,22.10
2018-02-22T16:42:38.814Z,19.60
2018-02-22T16:45:07.834Z,19.57
2018-02-22T16:47:36.157Z,18.23
2018-02-22T16:50:04.577Z,21.60
2018-02-22T16:52:33.665Z,19.77
2018-02-22T16:55:02.799Z,17.13
2018-02-22T17:56:32.265Z,20.70
2018-02-22T17:59:00.604Z,18.83
2018-02-22T18:01:29.689Z,23.63
2018-02-22T18:03:58.084Z,22.57
2018-02-22T18:06:26.407Z,23.50
2018-02-22T18:08:54.734Z,27.63
2018-02-22T18:11:23.016Z,21.83
2018-02-22T18:13:52.099Z,22.07
2018-02-22T18:16:20.432Z,23.97
2018-02-22T18:18:49.655Z,21.60
2018-02-22T18:21:17.953Z,24.70
2018-02-22T18:23:46.249Z,22.13
2018-02-22T18:26:15.324Z,18.47
2018-02-22T18:28:43.698Z,22.03
2018-02-22T18:31:12.071Z,21.33
2018-02-22T18:33:41.176Z,20.87
2018-02-22T18:36:09.554Z,22.98
2018-02-22T18:38:43.313Z,20.53
2018-02-22T18:41:11.634Z,22.17
2018-02-22T18:43:41.857Z,23.70
2018-02-22T18:46:10.274Z,23.10
2018-02-22T18:48:38.592Z,20.47
2018-02-22T18:51:06.865Z,20.73
2018-02-22T18:53:35.147Z,22.23
2018-02-22T18:56:03.445Z,23.70
2018-02-22T18:58:31.741Z,22.17
2018-02-22T19:01:00.015Z,19.77
2018-02-22T19:03:29.058Z,22.10
2018-02-22T19:05:57.327Z,21.37
2018-02-22T19:08:25.739Z,22.43
2018-02-22T19:10:54.220Z,18.07
2018-02-22T19:13:22.685Z,23.57
2018-02-22T19:15:51.067Z,21.73
2018-02-22T19:18:19.480Z,23.00
2018-02-22T19:20:48.545Z,21.70
2018-02-22T19:23:16.902Z,22.07
2018-02-22T19:25:45.248Z,21.53
2018-02-22T19:28:13.553Z,22.67
2018-02-22T19:30:41.966Z,20.10
2018-02-22T19:33:10.344Z,23.15
2018-02-22T19:35:38.732Z,20.90
2018-02-22T19:38:07.862Z,19.63
2018-02-22T19:40:36.173Z,21.43
2018-02-22T19:43:04.493Z,20.90
2018-02-22T19:45:33.666Z,22.08
2018-02-22T19:48:02.137Z,22.27
2018-02-22T19:50:30.465Z,22.10
2018-02-22T19:52:58.805Z,23.30
2018-02-22T19:55:27.106Z,22.40
2018-02-22T19:57:56.209Z,22.23
2018-02-22T20:00:24.556Z,24.17
2018-02-22T20:02:52.870Z,24.10
2018-02-22T20:05:21.212Z,23.93
2018-02-22T20:07:49.477Z,24.37
2018-02-22T20:10:17.815Z,24.33
2018-02-22T20:12:46.216Z,25.33
2018-02-22T20:15:14.596Z,24.90
2018-02-22T20:17:42.917Z,23.77
2018-02-22T20:20:12.080Z,26.07
2018-02-22T20:22:40.499Z,26.97
2018-02-22T20:25:09.630Z,23.80
2018-02-22T20:27:38.149Z,25.27
2018-02-22T20:30:06.453Z,23.20
2018-02-22T20:32:34.788Z,25.30
2018-02-22T20:35:03.178Z,20.97
2018-02-22T20:37:31.544Z,24.93
2018-02-22T20:39:59.911Z,25.17
2018-02-22T20:42:28.299Z,26.10
2018-02-22T20:44:56.663Z,27.30
2018-02-22T20:47:25.038Z,26.80
2018-02-22T20:49:53.944Z,26.63
2018-02-22T20:55:34.331Z,27.57
2018-02-22T21:36:11.082Z,24.63
2018-02-22T21:38:39.594Z,25.63
2018-02-22T21:41:08.045Z,25.83
2018-02-22T21:43:36.482Z,27.10
2018-02-22T21:46:04.878Z,24.70
2018-02-22T21:48:34.057Z,25.10
2018-02-22T21:51:02.569Z,25.87
2018-02-22T21:53:31.798Z,26.63
2018-02-22T21:56:00.165Z,26.20
2018-02-22T21:58:28.607Z,26.23
2018-02-22T22:00:57.049Z,26.33
2018-02-22T22:03:25.429Z,25.47
2018-02-22T22:05:53.838Z,26.50
2018-02-22T22:08:22.249Z,26.87
2018-02-22T22:10:50.671Z,25.97
2018-02-22T22:13:19.080Z,27.50
2018-02-22T22:15:47.493Z,25.07
2018-02-22T22:18:15.870Z,26.10
2018-02-22T22:20:44.258Z,24.63
2018-02-22T22:23:12.658Z,27.17
2018-02-22T22:25:41.054Z,27.33
2018-02-22T22:28:09.411Z,26.40
2018-02-22T22:30:37.815Z,26.47
2018-02-22T22:33:06.234Z,27.60
2018-02-22T22:35:34.616Z,23.33
2018-02-22T22:38:03.082Z,26.03
2018-02-22T22:40:32.207Z,27.50
2018-02-22T22:43:02.449Z,26.37
2018-02-22T22:45:30.821Z,26.93
2018-02-22T22:47:59.144Z,25.57
2018-02-22T22:50:27.609Z,26.00
2018-02-22T22:52:55.989Z,24.57
2018-02-22T22:55:25.039Z,24.67
2018-02-22T22:57:53.452Z,23.70
2018-02-22T23:00:22.849Z,26.30
2018-02-22T23:02:51.233Z,25.67
2018-02-22T23:05:19.640Z,28.47
2018-02-22T23:07:48.833Z,27.13
2018-02-22T23:10:17.292Z,26.50
2018-02-22T23:12:45.681Z,27.23
2018-02-22T23:15:14.049Z,26.87
2018-02-22T23:17:42.578Z,29.07
2018-02-22T23:20:10.974Z,28.17
2018-02-22T23:22:39.358Z,27.77
2018-02-22T23:25:08.406Z,27.40
2018-02-22T23:27:37.538Z,27.07
2018-02-22T23:30:05.904Z,26.03
2018-02-22T23:32:34.283Z,27.60
2018-02-22T23:35:02.716Z,26.37
2018-02-22T23:37:31.157Z,27.80
2018-02-22T23:39:59.529Z,27.63
2018-02-22T23:42:39.773Z,27.07
2018-02-22T23:45:08.159Z,26.47
2018-02-22T23:47:36.552Z,28.73
2018-02-22T23:50:04.971Z,28.43
2018-02-22T23:52:33.386Z,27.90
2018-02-22T23:55:01.773Z,28.90
2018-02-22T23:57:30.189Z,27.27
2018-02-22T23:59:58.563Z,27.13
